Tiempo atmosférico en la estación meteorológica de Pontevedra, Pontevedra (108 m.)



Fecha
DESCASC
Temp. máxima en grados centígrados (hora)
DESCASC
Temp. mínima en grados centígrados (hora)
DESCASC
Temp. media en grados centígrados
DESCASC
Racha de viento máxima en m/sg (hora)
DESCASC
Velocidad máxima media en intervalos de 10 minutos(hora)
DESCASC
Precipitaciones diarias en mm
DESCASC
Precipitaciones de 00:00 a 06:00 en mm
DESCASC
Precipitaciones de 06:00 a 12:00 en mm
DESCASC
Precipitaciones de 12:00 a 18:00 en mm
DESCASC
Precipitaciones de 18:00 a 24:00 en mm
DESCASC
22-01-2020 15.2 (13:10) 7.6 (04:00) 11.4 11.67 (11:00) 5.83 (05:10) 0 0 0 0 0
21-01-2020 12 (13:30) 5.7 (00:30) 8.8 15.28 (14:00) 6.11 (08:20) 0 0 0 0 0
20-01-2020 11 (14:20) 5.1 (07:50) 8 16.67 (15:10) 7.22 (17:00) 0 0 0 0 0
19-01-2020 12.7 (15:00) 6.2 (00:00) 9.4 13.33 (06:40) 5.28 (14:00) 0.2 0.2 0 0 0
18-01-2020 13.9 (12:10) 9.2 (00:00) 11.5 13.61 (12:10) 6.67 (12:30) 4.2 0 0.2 0.6 3.4
17-01-2020 11.6 (15:10) 7.5 (00:00) 9.6 8.33 (06:20) 4.17 (01:20) 1.4 1.2 0.2 0 0
16-01-2020 14.9 (11:00) 9.5 (00:00) 12.2 17.78 (13:00) 7.78 (16:20) 48.8 6 2 37.6 3.2
15-01-2020 15.2 (15:00) 9.5 (00:00) 12.3 18.61 (02:20) 8.89 (01:00) 26.2 16.4 9.8 0 0
14-01-2020 14.9 (14:50) 10 (00:00) 12.4 16.94 (17:50) 8.06 (13:30) 0.6 0.6 0 0 0
13-01-2020 10.7 (13:10) 6.9 (00:00) 8.8 12.5 (20:50) 6.11 (21:40) 0.8 0 0 0 0.8
12-01-2020 13 (15:00) 2.6 (06:20) 7.8 6.39 (02:50) 4.17 (02:50) 0 0 0 0 0
11-01-2020 13.1 (14:50) 3.3 (00:00) 8.2 5.28 (23:50) 3.61 (23:50) 0 0 0 0 0
10-01-2020 13 (14:50) 4 (00:00) 8.5 5.83 (15:00) 3.61 (15:00) 0 0 0 0 0
09-01-2020 13.5 (13:20) 7.2 (00:00) 10.3 13.33 (12:40) 7.78 (15:00) 3.6 1 1.4 0.6 0.6
08-01-2020 12.5 (14:20) 7.8 (00:00) 10.2 3.61 (01:00) 2.22 (01:10) 0.8 0 0 0.2 0.6
07-01-2020 12.7 (15:00) 2.9 (00:00) 7.8 5.56 (05:40) 3.89 (08:10) 0 0 0 0 0
06-01-2020 11.4 (16:40) 2.5 (00:00) 6.9 6.11 (00:10) 4.17 (00:10) 0 0 0 0 0
05-01-2020 12.8 (17:30) 2.6 (00:00) 7.7 4.72 (02:20) 3.06 (02:20) 0 0 0 0 0
04-01-2020 13.5 (16:00) 4.2 (00:00) 8.8 4.72 (20:30) 3.61 (22:40) 0 0 0 0 0
03-01-2020 13.7 (16:10) 7.2 (00:00) 10.4 4.17 (22:20) 2.5 (22:10) 7.6 0.2 7.4 0 0
02-01-2020 10.2 (18:10) 2.8 (00:00) 6.5 8.61 (17:40) 5.56 (17:40) 0 0 0 0 0
01-01-2020 9.5 (17:10) 0.5 (00:00) 5 5.83 (03:40) 4.17 (03:40) 0 0 0 0 0
31-12-2019 14.2 (13:30) 5.4 (00:00) 9.8 6.67 (02:10) 4.17 (02:10) 0 0 0 0 0
30-12-2019 -- (--) -- (--) -- -- (--) -- (--) -- 0 0 0 --
29-12-2019 18.2 (14:50) 7.7 (00:00) 13 5.28 (23:00) 3.89 (23:00) 0 0 0 0 0
28-12-2019 17.6 (17:20) 5.6 (00:00) 11.6 5.83 (02:30) 3.33 (22:10) 0 0 0 0 0
27-12-2019 14 (17:20) 2.8 (00:00) 8.4 5.28 (22:30) 3.61 (22:40) 0 0 0 0 0

Gráficas

Temp. máximas Temp. mínimas Temp. medias Precipitaciones Rachas de viento máximas Velocidades máximas media en intervalos de 10 minutos

Datos horarios

Fecha y hora oficial Temperatura (ºC) Velocidad del viento (km/h) Dirección del viento Racha (km/h) Dirección de racha Precipitación (mm) Presión (hPa) Tendencia (hPa) Humedad (%)
2020-01-25 23:00:00 7.9 2 Sur 5 Nordeste 0 1005.6 1.4 90
2020-01-25 22:00:00 8.3 2 Sur 10 Este 0 1005.5 2.1 90
2020-01-25 21:00:00 9 5 Nordeste 7 Nordeste 0 1005.1 2.3 88
2020-01-25 20:00:00 9.7 5 Sur 12 Sur 0 1004.2 1.7 88
2020-01-25 19:00:00 10.1 7 Sur 11 Sur 0 1003.4 1.2 86
2020-01-25 18:00:00 11.9 6 Sur 20 Sudoeste 0 1002.8 0.3 76
2020-01-25 17:00:00 13.4 8 Sudoeste 18 Sudoeste 0 1002.5 -0.4 63
2020-01-25 16:00:00 12.8 8 Sudoeste 17 Sudoeste 0 1002.2 -1.4 60
2020-01-25 15:00:00 13.5 9 Sudoeste 15 Sudoeste 0 1002.5 -1.3 55
2020-01-25 14:00:00 13.2 5 Sudoeste 10 Sudoeste 0 1002.9 -0.6 60
2020-01-25 13:00:00 11.4 3 Oeste 5 Sudoeste 0 1003.6 0.5 66
2020-01-25 12:00:00 9.6 2 Sur 6 Nordeste 0 1003.8 1 74
2020-01-25 11:00:00 6.5 0 Calma 13 Nordeste 0 1003.5 0.9 82
2020-01-25 10:00:00 5.1 9 Nordeste 17 Nordeste 0 1003.1 0.7 86
2020-01-25 09:00:00 4.3 4 Este 13 Este 0 1002.8 0.5 86
2020-01-25 08:00:00 4.2 5 Nordeste 10 Este 0 1002.6 0.2 87
2020-01-25 07:00:00 4.4 3 Este 12 Nordeste 0 1002.4 0 86
2020-01-25 06:00:00 5.4 6 Nordeste 10 Nordeste 0 1002.3 -0.3 85
2020-01-25 05:00:00 5.5 0 Calma 14 Este 0 1002.4 -0.8 84
2020-01-25 04:00:00 6.2 10 Este 14 Este 0 1002.4 -1.1 80
2020-01-25 03:00:00 6.5 8 Este 17 Nordeste 0 1002.6 -1 80
2020-01-25 02:00:00 6.8 9 Nordeste 17 Nordeste 0 1003.2 -0.7 79
2020-01-25 01:00:00 7.4 13 Nordeste 20 Nordeste 0 1003.5 -0.5 79
2020-01-25 00:00:00 7.5 10 Nordeste 18 Este 0 1003.6 -0.6 79
2020-01-24 23:00:00 8.2 12 Nordeste 19 Este 0 1003.9 -0.2 79
2020-01-24 22:00:00 9.1 10 Nordeste 15 Nordeste 0 1004 0.1 78
2020-01-24 21:00:00 9.9 3 Nordeste 7 Este 0 1004.2 0.7 77
2020-01-24 20:00:00 11.1 4 Norte 5 Norte 0 1004.1 0.7 71
2020-01-24 19:00:00 12.3 4 Noroeste 6 Noroeste 0 1003.9 0.5 63
2020-01-24 18:00:00 13.6 4 Sudoeste 11 Sudoeste 0 1003.5 -0.2 56
2020-01-24 17:00:00 14.7 8 Sudoeste 12 Oeste 0 1003.4 -0.9 52
2020-01-24 16:00:00 15.2 5 Nordeste 12 Nordeste 0 1003.4 -1.7 52
2020-01-24 15:00:00 15.8 4 Sur 9 Sudeste 0 1003.7 -1.9 50
2020-01-24 14:00:00 13.6 2 Nordeste 4 Este 0 1004.3 -1.1 60
2020-01-24 13:00:00 13 2 Sur 7 Sur 0 1005.1 0 65
2020-01-24 12:00:00 11.6 3 Sudoeste 11 Este 0 1005.6 0.9 69
2020-01-24 11:00:00 9.4 4 Sur 14 Nordeste 0 1005.4 1.3 75
2020-01-24 10:00:00 6.9 5 Este 17 Nordeste 0 1005.1 1.5 78
2020-01-24 09:00:00 6 5 Este 18 Nordeste 0 1004.7 1.3 81
2020-01-24 08:00:00 6.9 12 Nordeste 18 Nordeste 0 1004.1 0.8 81
2020-01-24 07:00:00 6.6 10 Este 13 Este 0 1003.6 0.2 81
2020-01-24 06:00:00 7.3 4 Sudeste 15 Nordeste 0 1003.4 0 75
2020-01-24 05:00:00 7.5 6 Nordeste 11 Nordeste 0 1003.3 -0.4 75
2020-01-24 04:00:00 9.1 5 Este 9 Este 0 1003.4 -0.2 70
2020-01-24 03:00:00 8.6 4 Este 14 Nordeste 0 1003.4 -0.2 73
2020-01-24 02:00:00 9.2 10 Nordeste 17 Nordeste 0 1003.7 0.4 70
2020-01-24 01:00:00 8.8 11 Nordeste 16 Nordeste 0 1003.6 0.4 73
2020-01-24 00:00:00 9.9 12 Nordeste 18 Este 0 1003.6 0.6 66
2020-01-23 23:00:00 9.4 10 Nordeste 19 Nordeste 0 1003.3 0.9 68
2020-01-23 22:00:00 9.4 12 Este 21 Nordeste 0 1003.2 1.2 69
2020-01-23 21:00:00 9.1 15 Nordeste 24 Nordeste 0 1003 1.5 71
2020-01-23 20:00:00 9.7 9 Este 12 Nordeste 0 1002.4 1.2 69
2020-01-23 19:00:00 10.7 0 Calma 7 Nordeste 0 1002 0.7 65
2020-01-23 18:00:00 13.2 2 Sudeste 10 Oeste 0 1001.5 -0.3 57
2020-01-23 17:00:00 13.9 3 Norte 9 Oeste 0 1001.2 -1.3 54
2020-01-23 16:00:00 13.1 0 Calma 10 Sudeste 0 1001.3 -1.4 61
2020-01-23 15:00:00 13.7 2 Sudoeste 23 Este 0 1001.8 -1.2 51
2020-01-23 14:00:00 13.2 8 Sudeste 17 Este 0 1002.5 -0.6 52
2020-01-23 13:00:00 12 10 Este 17 Este 0 1002.7 0.1 56
2020-01-23 12:00:00 9.8 5 Nordeste 8 Nordeste 0 1003 1 69
2020-01-23 11:00:00 8.5 3 Noroeste 12 Nordeste 0 1003.1 1.5 71
2020-01-23 10:00:00 8 4 Norte 10 Norte 0 1002.6 1 69
2020-01-23 09:00:00 7 5 Este 12 Este 0 1002 0.4 71
2020-01-23 08:00:00 6.9 6 Nordeste 18 Nordeste 0 1001.6 -0.3 74
2020-01-23 07:00:00 7.7 9 Nordeste 17 Nordeste 0 1001.6 -0.5 72
2020-01-23 06:00:00 7.6 10 Nordeste 17 Nordeste 0 1001.6 -0.7 75
2020-01-23 05:00:00 8.6 10 Nordeste 17 Nordeste 0 1001.9 -0.8 72
2020-01-23 04:00:00 9 9 Nordeste 14 Nordeste 0 1002.1 -1.1 73
2020-01-23 03:00:00 9.3 10 Nordeste 14 Nordeste 0 1002.3 -1 73
2020-01-23 02:00:00 9.4 5 Nordeste 15 Nordeste 0 1002.7 -0.6 74
2020-01-23 01:00:00 9.8 10 Nordeste 18 Nordeste 0 1003.2 -0.2 71
2020-01-23 00:00:00 10.1 4 Norte 20 Norte 0 1003.3 -0.3 69
2020-01-22 23:00:00 10.5 9 Noroeste 31 Nordeste 0 1003.3 -0.5 68
2020-01-22 22:00:00 10.8 14 Nordeste 32 Nordeste 0 1003.4 -0.3 65
2020-01-22 21:00:00 10.4 12 Nordeste 27 Nordeste 0 1003.6 0 69
2020-01-22 20:00:00 11 10 Nordeste 30 Nordeste 0 1003.8 0.5 66
2020-01-22 19:00:00 11.9 12 Nordeste 32 Nordeste 0 1003.7 0.1 63
2020-01-22 18:00:00 13.1 10 Norte 26 Nordeste 0 1003.6 -0.7 60
2020-01-22 17:00:00 14.5 11 Nordeste 29 Nordeste 0 1003.3 -1.4 56
2020-01-22 16:00:00 14.7 14 Nordeste 32 Nordeste 0 1003.6 -1.9 55
2020-01-22 15:00:00 14.2 13 Norte 34 Norte 0 1004.3 -2.1 57
2020-01-22 14:00:00 14.8 13 Norte 36 Nordeste 0 1004.7 -1.5 56
2020-01-22 13:00:00 15 18 Nordeste 35 Nordeste 0 1005.5 -0.6 51
2020-01-22 12:00:00 13.9 15 Nordeste 35 Norte 0 1006.4 0.2 57
2020-01-22 11:00:00 11.7 19 Nordeste 42 Norte 0 1006.2 -0.2 66
2020-01-22 10:00:00 10.7 13 Nordeste 31 Nordeste 0 1006.1 0.1 68
2020-01-22 09:00:00 10 8 Nordeste 23 Nordeste 0 1006.2 0 68
2020-01-22 08:00:00 10.5 20 Nordeste 34 Nordeste 0 1006.4 -0.1 66
2020-01-22 07:00:00 10 16 Nordeste 36 Nordeste 0 1006 -0.9 67
2020-01-22 06:00:00 9.3 14 Nordeste 37 Norte 0 1006.2 -1.1 67
2020-01-22 05:00:00 8.9 15 Nordeste 29 Nordeste 0 1006.5 -1.1 65
2020-01-22 04:00:00 7.6 10 Este 18 Nordeste 0 1006.9 -0.6 68
2020-01-22 03:00:00 8.1 7 Nordeste 24 Norte 0 1007.3 -0.2 64
2020-01-22 02:00:00 8.2 10 Nordeste 34 Nordeste 0 1007.6 -0.2 63
2020-01-22 01:00:00 8.3 13 Nordeste 36 Nordeste 0 1007.5 -0.3 63
2020-01-22 00:00:00 8.5 17 Nordeste 43 Norte 0 1007.5 -0.3 63
2020-01-21 23:00:00 8.5 13 Norte 39 Nordeste 0 1007.8 0.1 62
2020-01-21 22:00:00 8.5 12 Norte 35 Norte 0 1007.8 0.3 63
2020-01-21 21:00:00 8.4 11 Norte 35 Norte 0 1007.8 1.1 64
2020-01-21 20:00:00 8.7 10 Nordeste 40 Nordeste 0 1007.7 0.5 62
2020-01-21 19:00:00 9.4 18 Nordeste 49 Nordeste 0 1007.5 -0.2 61
2020-01-21 18:00:00 9.5 17 Nordeste 41 Norte 0 1006.7 -1.7 61
2020-01-21 17:00:00 10.5 17 Norte 49 Norte 0 1007.2 -2.1 58
2020-01-21 16:00:00 11.5 17 Norte 42 Norte 0 1007.7 -3 55
2020-01-21 15:00:00 11.1 17 Norte 53 Nordeste 0 1008.4 -3.3 55
2020-01-21 14:00:00 11.6 18 Norte 55 Norte 0 1009.3 -2.9 51
2020-01-21 13:00:00 11.4 17 Nordeste 41 Nordeste 0 1010.7 -1.3 53
2020-01-21 12:00:00 10.1 16 Nordeste 34 Nordeste 0 1011.7 -0.6 55
2020-01-21 11:00:00 8.6 14 Nordeste 32 Nordeste 0 1012.2 0.2 60
2020-01-21 10:00:00 6.9 12 Norte 32 Nordeste 0 1012 0 65
2020-01-21 09:00:00 6.7 19 Nordeste 41 Nordeste 0 1012.3 0.1 64
2020-01-21 08:00:00 6.7 21 Nordeste 41 Nordeste 0 1012 -0.5 62
2020-01-21 07:00:00 6.8 13 Nordeste 39 Norte 0 1012 -1 60
2020-01-21 06:00:00 6.4 12 Nordeste 34 Nordeste 0 1012.2 -1.1 60
2020-01-21 05:00:00 6.3 21 Nordeste 39 Nordeste 0 1012.5 -1.1 60
2020-01-21 04:00:00 6 13 Nordeste 33 Nordeste 0 1013 -1 59
2020-01-21 03:00:00 5.9 14 Nordeste 32 Norte 0 1013.3 -0.5 59
2020-01-21 02:00:00 5.8 9 Norte 27 Noroeste 0 1013.6 -0.4 59
2020-01-21 01:00:00 6 12 Norte 28 Noroeste 0 1014 0.5 57
2020-01-21 00:00:00 6.2 10 Noroeste 32 Noroeste 0 1013.8 0 56
2020-01-20 23:00:00 6.3 17 Norte 41 Nordeste 0 1014 0.4 54
2020-01-20 22:00:00 6.3 13 Norte 36 Norte 0 1013.5 0.6 54
2020-01-20 21:00:00 6.8 16 Nordeste 37 Nordeste 0 1013.8 1.5 51
2020-01-20 20:00:00 7.2 12 Norte 43 Nordeste 0 1013.6 1.3 50
2020-01-20 19:00:00 7.9 15 Norte 47 Nordeste 0 1012.9 -0.1 48
2020-01-20 18:00:00 9.5 22 Nordeste 54 Nordeste 0 1012.3 -1.1 45
2020-01-20 17:00:00 10.2 26 Nordeste 52 Nordeste 0 1012.3 -1.7 40
2020-01-20 16:00:00 10.4 19 Nordeste 60 Nordeste 0 1013 -2.8 41
2020-01-20 15:00:00 10.6 18 Nordeste 58 Nordeste 0 1013.4 -3.5 40
2020-01-20 14:00:00 10.8 21 Nordeste 59 Nordeste 0 1014 -3.3 39
2020-01-20 13:00:00 10.4 16 Nordeste 53 Nordeste 0 1015.8 -2 39
2020-01-20 12:00:00 9.1 15 Norte 45 Norte 0 1016.9 -0.7 50
2020-01-20 11:00:00 7.6 15 Norte 36 Noroeste 0 1017.3 -0.2 56
2020-01-20 10:00:00 6.1 10 Norte 30 Norte 0 1017.8 0.2 61
2020-01-20 09:00:00 5.8 13 Norte 41 Noroeste 0 1017.6 -0.4 64
2020-01-20 08:00:00 5.1 15 Norte 28 Noroeste 0 1017.5 -0.4 73
2020-01-20 07:00:00 5.6 15 Noroeste 31 Noroeste 0 1017.6 -0.9 68
2020-01-20 06:00:00 6.5 14 Norte 36 Norte 0 1018 -1.2 61
2020-01-20 05:00:00 6.3 20 Noroeste 35 Norte 0 1017.9 -2.4 65
2020-01-20 04:00:00 7 14 Norte 33 Norte 0 1018.5 -2.2 57
2020-01-20 03:00:00 6.5 15 Norte 35 Norte 0 1019.2 -1.4 60
2020-01-20 02:00:00 6.3 9 Norte 24 Norte 0 1020.3 -0.5 59
2020-01-20 01:00:00 6.5 10 Norte 26 Norte 0 1020.7 0.4 58
2020-01-20 00:00:00 6.4 10 Norte 24 Norte 0 1020.6 0.4 62
2020-01-19 23:00:00 6.4 4 Nordeste 23 Norte 0 1020.8 1.1 62
2020-01-19 22:00:00 6.8 7 Norte 26 Nordeste 0 1020.3 1.4 60
2020-01-19 21:00:00 7.2 9 Norte 32 Nordeste 0 1020.2 1.8 60
2020-01-19 20:00:00 8.1 11 Norte 29 Norte 0 1019.7 2.2 58
2020-01-19 19:00:00 8.8 7 Norte 36 Norte 0 1018.9 1.7 58
2020-01-19 18:00:00 10.6 11 Norte 41 Noroeste 0 1018.4 1.1 49
2020-01-19 17:00:00 11.9 17 Norte 37 Nordeste 0 1017.5 -0.3 46
2020-01-19 16:00:00 12.3 14 Norte 34 Norte 0 1017.2 -0.8 43
2020-01-19 15:00:00 12.6 14 Norte 44 Norte 0 1017.3 -0.7 46
2020-01-19 14:00:00 12.3 19 Norte 43 Nordeste 0 1017.8 0 54
2020-01-19 13:00:00 12.2 12 Norte 38 Norte 0 1018 1.1 56
2020-01-19 12:00:00 11.2 14 Norte 48 Nordeste 0 1018 2.5 55
2020-01-19 11:00:00 10.1 17 Nordeste 43 Nordeste 0 1017.8 3.5 58
2020-01-19 10:00:00 8.9 15 Nordeste 46 Norte 0 1016.9 3.4 65
2020-01-19 09:00:00 9.3 14 Nordeste 41 Norte 0 1015.5 2.4 70
2020-01-19 08:00:00 9.6 15 Norte 39 Norte 0 1014.3 1.5 72
2020-01-19 07:00:00 9.6 9 Norte 48 Noroeste 0 1013.5 1.1 77
2020-01-19 06:00:00 9.7 10 Noroeste 30 Norte 0 1013.1 1 81
2020-01-19 05:00:00 9.5 8 Noroeste 23 Noroeste 0 1012.8 0.9 89
2020-01-19 04:00:00 9.2 6 Noroeste 17 Noroeste 0 1012.4 0.6 92
2020-01-19 03:00:00 8.9 9 Noroeste 21 Noroeste 0 1012.1 1.3 93
2020-01-19 02:00:00 8.7 10 Noroeste 19 Noroeste 0.2 1011.9 2 93
2020-01-19 01:00:00 9.1 5 Noroeste 17 Norte 0 1011.8 2.8 92
2020-01-19 00:00:00 9.7 8 Noroeste 20 Noroeste 0 1010.8 2.2 92
2020-01-18 23:00:00 10.1 11 Noroeste 21 Oeste 0 1009.9 1.4 94
2020-01-18 22:00:00 10.2 4 Nordeste 13 Sur 0.4 1009 0.8 95
2020-01-18 21:00:00 10.2 3 Sur 27 Sudoeste 1.2 1008.6 0.6 92
2020-01-18 20:00:00 10 10 Oeste 22 Oeste 1.2 1008.5 0.6 92
2020-01-18 19:00:00 10.2 9 Sudoeste 31 Sudoeste 0.6 1008.2 0.4 89
2020-01-18 18:00:00 11.1 14 Sudoeste 38 Sudoeste 0 1008 0.3 83
2020-01-18 17:00:00 12.2 17 Sudoeste 40 Sudoeste 0 1007.9 0.3 77
2020-01-18 16:00:00 12.6 19 Sudoeste 35 Sudoeste 0 1007.8 -0.5 71
2020-01-18 15:00:00 11.6 14 Oeste 45 Oeste 0.4 1007.7 -0.3 86
2020-01-18 14:00:00 13.4 21 Sudoeste 41 Sudoeste 0 1007.6 0.1 88
2020-01-18 13:00:00 12.7 22 Sudoeste 49 Sudoeste 0.2 1008.3 1.3 93
2020-01-18 12:00:00 13.6 24 Sudoeste 46 Sudoeste 0.2 1008 0.9 95
2020-01-18 11:00:00 12.2 12 Sur 31 Sur 0 1007.5 0 93
2020-01-18 10:00:00 12.5 15 Sur 36 Sudeste 0 1007 -0.1 88
2020-01-18 09:00:00 12.2 16 Sudeste 40 Sur 0 1007.1 -0.6 84
2020-01-18 08:00:00 11.4 3 Este 19 Sur 0 1007.5 -1 83
2020-01-18 07:00:00 11.3 6 Sur 21 Sudoeste 0 1007.1 -2.4 81
2020-01-18 06:00:00 10.4 6 Norte 21 Este 0 1007.7 -2.9 83
2020-01-18 05:00:00 10.4 9 Sudeste 23 Sudeste 0 1008.5 -3.7 79
2020-01-18 04:00:00 9.9 5 Noroeste 18 Sudeste 0 1009.5 -4.3 75
2020-01-18 03:00:00 9.7 4 Norte 22 Sudeste 0 1010.6 -3.8 76
2020-01-18 02:00:00 10.1 12 Sudeste 22 Sudeste 0 1012.2 -3.1 73
2020-01-18 01:00:00 9.2 3 Este 14 Sur 0 1013.8 -1.9 77
2020-01-18 00:00:00 9.2 9 Este 15 Este 0 1014.4 -1.6 75
2020-01-17 23:00:00 9.1 8 Este 14 Este 0 1015.3 -0.5 77
2020-01-17 22:00:00 9.1 6 Sudeste 8 Sudeste 0 1015.7 -1 79
2020-01-17 21:00:00 9.2 0 Calma 10 Nordeste 0 1016 -0.8 81
2020-01-17 20:00:00 9.5 4 Nordeste 14 Este 0 1015.8 -0.6 80
2020-01-17 19:00:00 9.9 3 Este 6 Este 0 1016.7 0.1 77
2020-01-17 18:00:00 10.2 4 Sudeste 6 Sudeste 0 1016.8 -0.2 78
2020-01-17 17:00:00 11.2 4 Nordeste 5 Nordeste 0 1016.4 -1 75
2020-01-17 16:00:00 11.4 3 Sudoeste 8 Sur 0 1016.6 -1 70
2020-01-17 15:00:00 11.5 4 Sudoeste 10 Sudoeste 0 1017 -0.6 73
2020-01-17 14:00:00 11.3 5 Sudoeste 12 Sudoeste 0 1017.4 0.4 77
2020-01-17 13:00:00 10.7 3 Sudoeste 7 Sur 0 1017.6 1.3 84
2020-01-17 12:00:00 9.5 0 Calma 5 Sudoeste 0 1017.6 2.2 91
2020-01-17 11:00:00 8.7 3 Sudeste 9 Este 0 1017 2.5 90
2020-01-17 10:00:00 7.6 7 Este 11 Noroeste 0 1016.3 2.5 88
2020-01-17 09:00:00 8.3 4 Noroeste 9 Sur 0 1015.4 2.9 84
2020-01-17 08:00:00 7.9 4 Sur 18 Oeste 0.2 1014.5 3.1 87
2020-01-17 07:00:00 9.1 8 Oeste 30 Oeste 0 1013.8 2.6 79
2020-01-17 06:00:00 8.3 4 Sur 11 Sudoeste 0.4 1012.5 2.1 93
2020-01-17 05:00:00 8.2 3 Sudeste 9 Sudeste 0.2 1011.4 1.7 92
2020-01-17 04:00:00 8.5 6 Sur 30 Sudoeste 0.6 1011.2 2.5 91
2020-01-17 03:00:00 9.4 8 Sudoeste 17 Sudoeste 0 1010.4 2.4 91
2020-01-17 02:00:00 9.7 5 Sur 26 Sudoeste 0 1009.7 2.4 87
2020-01-17 01:00:00 10.1 9 Sur 24 Sudoeste 0 1008.7 1.8 89
2020-01-17 00:00:00 11.2 9 Sudoeste 23 Sudoeste 0.4 1008 1.3 92
2020-01-16 23:00:00 11.2 12 Sudoeste 31 Sudoeste 0.2 1007.3 1.6 92
2020-01-16 22:00:00 10.4 4 Sudoeste 16 Sur 0 1006.9 2.3 94
2020-01-16 21:00:00 10.1 5 Sur 15 Sudeste 0.2 1006.7 3.7 96
2020-01-16 20:00:00 9.7 3 Sudeste 14 Sudeste 2 1005.7 3.9 96
2020-01-16 19:00:00 9.7 2 Sur 23 Sudeste 0.4 1004.6 4.9 95
2020-01-16 18:00:00 10 8 Sur 33 Sudoeste 12.4 1003 2.4 93
2020-01-16 17:00:00 11.5 21 Sur 55 Sur 6.6 1001.8 0.2 92
2020-01-16 16:00:00 12.2 23 Sur 58 Sur 4.6 999.7 -2.6 89
2020-01-16 15:00:00 12.6 17 Sur 46 Sur 4.4 1000.6 -1.9 92
2020-01-16 14:00:00 12.8 21 Sur 56 Sur 5.8 1001.6 -0.7 92
2020-01-16 13:00:00 13.4 26 Sur 64 Sur 3.8 1002.3 -0.1 90
2020-01-16 12:00:00 14.2 22 Sur 54 Sur 1.2 1002.5 0.1 84
2020-01-16 11:00:00 14.9 21 Sur 53 Sur 0.2 1002.3 -0.1 81
2020-01-16 10:00:00 14.7 22 Sur 63 Sur 0 1002.4 -0.1 83
2020-01-16 09:00:00 14.6 22 Sur 49 Sur 0 1002.4 -0.5 83
2020-01-16 08:00:00 14.3 18 Sur 49 Sudeste 0.6 1002.4 -0.5 84
2020-01-16 07:00:00 14.5 24 Sur 50 Sur 0 1002.5 -0.9 83
2020-01-16 06:00:00 14.3 21 Sur 46 Sur 0 1002.9 -0.2 86
2020-01-16 05:00:00 13.9 22 Sur 43 Sur 0.8 1002.9 -0.7 91
2020-01-16 04:00:00 14.4 21 Sur 45 Sur 0.2 1003.4 -1 88
2020-01-16 03:00:00 13.9 17 Sur 39 Sur 3.8 1003.1 -2.1 95
2020-01-16 02:00:00 13.9 17 Sur 37 Sudeste 1.2 1003.6 -1.3 91
2020-01-16 01:00:00 14.5 15 Sur 37 Sur 0 1004.4 0 78
2020-01-16 00:00:00 14.2 21 Sur 57 Sur 0 1005.2 0.6 72
2020-01-15 23:00:00 14.4 22 Sur 45 Sur 0 1004.9 0.3 82
2020-01-15 22:00:00 13.3 9 Sur 19 Sudeste 0 1004.4 -0.3 91
2020-01-15 21:00:00 12.6 4 Sur 12 Este 0 1004.6 -0.3 88
2020-01-15 20:00:00 12.6 3 Sur 12 Sudeste 0 1004.6 -0.2 83
2020-01-15 19:00:00 12 3 Sur 7 Sudoeste 0 1004.7 -0.3 86
2020-01-15 18:00:00 13.1 4 Sudoeste 12 Sudoeste 0 1004.9 0.1 79
2020-01-15 17:00:00 14.1 6 Sudoeste 14 Sudoeste 0 1004.8 0 75
2020-01-15 16:00:00 13.8 9 Sudoeste 18 Sudoeste 0 1005 -0.1 73
2020-01-15 15:00:00 15.1 7 Sur 19 Sur 0 1004.8 -0.4 71
2020-01-15 14:00:00 14.6 6 Sur 19 Sur 0 1004.8 0 72
2020-01-15 13:00:00 14.4 5 Sur 13 Sur 0 1005.1 1.6 80
2020-01-15 12:00:00 12.9 2 Sur 6 Sudeste 0 1005.2 2.4 88
2020-01-15 11:00:00 10.6 0 Calma 4 Sudeste 0 1004.8 3.9 95
2020-01-15 10:00:00 9.6 2 Este 8 Sudeste 0 1003.5 4.8 94
2020-01-15 09:00:00 10 7 Sudeste 10 Sudeste 0 1002.8 5.4 94
2020-01-15 08:00:00 10.6 6 Sudeste 13 Sur 0.2 1000.9 3.7 95
2020-01-15 07:00:00 11.1 9 Oeste 34 Oeste 9.6 998.7 2.1 92
2020-01-15 06:00:00 12.7 15 Sur 52 Sur 1 997.4 1.2 89
2020-01-15 05:00:00 12.7 26 Sur 53 Sur 6 997.2 0.6 92
2020-01-15 04:00:00 12.7 13 Sur 60 Sur 9.2 996.6 -0.8 93
2020-01-15 03:00:00 12.9 20 Sur 67 Sur 0.2 996.2 -1.2 88
2020-01-15 02:00:00 14.5 30 Sur 64 Sur 0 996.6 -1 74
2020-01-15 01:00:00 14.3 32 Sur 63 Sur 0 997.4 -0.6 76
2020-01-15 00:00:00 14.3 29 Sur 58 Sur 0 997.4 -0.9 77
2020-01-14 23:00:00 13.9 20 Sur 51 Sur 0 997.6 -1 78
2020-01-14 22:00:00 14 19 Sur 47 Sudeste 0 998 -1 75
2020-01-14 21:00:00 14 21 Sur 49 Sur 0 998.3 -0.8 73
2020-01-14 20:00:00 13.9 23 Sur 46 Sur 0 998.6 -0.4 71
2020-01-14 19:00:00 14 22 Sur 49 Sur 0 999 0.2 70
2020-01-14 18:00:00 13.9 25 Sur 61 Sur 0 999.1 -0.2 70
2020-01-14 17:00:00 14 17 Sur 50 Sur 0 999 -1.1 73
2020-01-14 16:00:00 14.4 22 Sur 47 Sudeste 0 998.8 -2.4 73
2020-01-14 15:00:00 14.8 22 Sur 46 Sudeste 0 999.3 -2.4 71
2020-01-14 14:00:00 14.6 25 Sur 54 Sur 0 1000.1 -1.5 71
2020-01-14 13:00:00 13.9 18 Sur 47 Sur 0 1001.2 -0.6 74
2020-01-14 12:00:00 13.3 22 Sur 44 Sur 0 1001.7 0.2 76
2020-01-14 11:00:00 12.6 21 Sur 41 Sur 0 1001.6 -0.2 78
2020-01-14 10:00:00 12.3 18 Sur 40 Sudeste 0 1001.8 0.3 79
2020-01-14 09:00:00 12.1 20 Sur 40 Sudeste 0 1001.5 0.2 79
2020-01-14 08:00:00 12.1 19 Sur 51 Sudeste 0 1001.8 0.2 79
2020-01-14 07:00:00 11.9 20 Sur 45 Sur 0 1001.5 -0.7 80
2020-01-14 06:00:00 11.7 20 Sur 51 Sur 0 1001.3 -0.9 81
2020-01-14 05:00:00 11.6 21 Sur 41 Sudeste 0 1001.6 -1.4 81
2020-01-14 04:00:00 11.5 22 Sur 50 Sur 0 1002.2 -0.9 82
2020-01-14 03:00:00 11 22 Sudeste 48 Sur 0.2 1002.2 -1.6 86
2020-01-14 02:00:00 10.7 19 Sur 49 Sur 0.2 1003 -0.6 89
2020-01-14 01:00:00 10.8 22 Sudeste 48 Sur 0.2 1003.1 -0.7 88
2020-01-14 00:00:00 10.1 19 Sudeste 43 Sudeste 0.2 1003.8 -0.4 91
2020-01-13 23:00:00 9.8 17 Sur 42 Sur 0.2 1003.6 -1.2 92
2020-01-13 22:00:00 9.5 18 Sur 45 Sudeste 0.4 1003.8 -1 91
2020-01-13 21:00:00 10 18 Sur 45 Sudeste 0 1004.2 -0.7 85
2020-01-13 20:00:00 9.9 15 Sur 39 Sur 0 1004.8 -0.5 83
2020-01-13 19:00:00 10.2 18 Sur 43 Sur 0 1004.8 -1.3 77
2020-01-13 18:00:00 10.3 18 Sur 41 Sur 0 1004.9 -1.5 74
2020-01-13 17:00:00 10.3 17 Sur 35 Sur 0 1005.3 -2.2 73
2020-01-13 16:00:00 10.3 18 Sur 41 Sur 0 1006.1 -2.8 72
2020-01-13 15:00:00 10.4 15 Sur 37 Sur 0 1006.4 -3.3 70
2020-01-13 14:00:00 10.6 17 Sur 36 Sur 0 1007.5 -2.6 69
2020-01-13 13:00:00 10.5 10 Sur 26 Sur 0 1008.9 -1.2 71
2020-01-13 12:00:00 9.4 7 Sudeste 27 Sudeste 0 1009.7 -0.2 73
2020-01-13 11:00:00 8.6 5 Sur 14 Sudeste 0 1010.1 0.4 77
2020-01-13 10:00:00 8.3 10 Sur 24 Sudeste 0 1010.1 0.6 74
2020-01-13 09:00:00 7.8 10 Sudeste 21 Sur 0 1009.9 -0.4 74
2020-01-13 08:00:00 8 8 Sudeste 21 Sur 0 1009.7 -1.4 79
2020-01-13 07:00:00 7.2 4 Sudeste 11 Sudeste 0 1009.5 -2 82
2020-01-13 06:00:00 7.7 6 Sur 11 Sur 0 1010.3 -1.5 82
2020-01-13 05:00:00 7.4 3 Sur 12 Sudeste 0 1011.1 -1.7 86
2020-01-13 04:00:00 7.4 5 Sudeste 13 Sudeste 0 1011.5 -2.5 86
2020-01-13 03:00:00 7.2 7 Sudeste 12 Sudeste 0 1011.8 -2.8 89
2020-01-13 02:00:00 7.1 3 Este 6 Este 0 1012.8 -2 90
2020-01-13 01:00:00 7.3 3 Sudeste 5 Este 0 1014 -1.3 90
2020-01-13 00:00:00 7.7 5 Este 9 Nordeste 0 1014.6 -0.9 88
2020-01-12 23:00:00 7.9 0 Calma 11 Este 0 1014.8 -1 88
2020-01-12 22:00:00 7.9 4 Nordeste 9 Este 0 1015.3 -0.6 88
2020-01-12 21:00:00 7.9 0 Calma 8 Este 0 1015.5 -0.3 88
2020-01-12 20:00:00 8.9 4 Este 5 Este 0 1015.8 0.1 86
2020-01-12 19:00:00 9.7 3 Sur 8 Sur 0 1015.9 0.1 83
2020-01-12 18:00:00 10.8 5 Sur 13 Sudoeste 0 1015.8 -0.3 76
2020-01-12 17:00:00 12.3 6 Sudoeste 14 Sudoeste 0 1015.7 -1.2 71
2020-01-12 16:00:00 12.5 6 Sur 13 Sudoeste 0 1015.8 -2.1 70
2020-01-12 15:00:00 12.7 5 Sudoeste 12 Sudoeste 0 1016.1 -2.6 62
2020-01-12 14:00:00 12.7 6 Sur 9 Sur 0 1016.9 -1.7 63
2020-01-12 13:00:00 10.2 3 Noroeste 6 Nordeste 0 1017.9 -0.4 65
2020-01-12 12:00:00 8.7 3 Nordeste 10 Nordeste 0 1018.7 0.8 71
2020-01-12 11:00:00 5.2 3 Nordeste 18 Nordeste 0 1018.6 0.8 79
2020-01-12 10:00:00 3.2 10 Nordeste 17 Nordeste 0 1018.3 0.8 81
2020-01-12 09:00:00 3.2 8 Nordeste 22 Nordeste 0 1017.9 0.7 82
2020-01-12 08:00:00 3.5 4 Este 22 Nordeste 0 1017.8 0.4 82
2020-01-12 07:00:00 3.1 14 Nordeste 21 Nordeste 0 1017.5 0 86
2020-01-12 06:00:00 2.8 6 Nordeste 20 Nordeste 0 1017.2 -0.3 83
2020-01-12 05:00:00 3.1 7 Este 18 Nordeste 0 1017.4 -0.1 89
2020-01-12 04:00:00 3.4 11 Nordeste 18 Este 0 1017.5 0 88
2020-01-12 03:00:00 3.6 13 Nordeste 23 Nordeste 0 1017.5 -0.4 87
2020-01-12 02:00:00 3.3 14 Este 19 Este 0 1017.5 -0.6 89
2020-01-12 01:00:00 3.5 11 Nordeste 17 Este 0 1017.5 -0.5 87
2020-01-12 00:00:00 4.8 7 Nordeste 19 Nordeste 0 1017.9 0.2 83
2020-01-11 23:00:00 5.4 10 Nordeste 17 Nordeste 0 1018.1 0.4 82
2020-01-11 22:00:00 6.1 11 Nordeste 17 Nordeste 0 1018 0.5 81
2020-01-11 21:00:00 6.8 12 Nordeste 15 Este 0 1017.7 0.7 79
2020-01-11 20:00:00 7.9 3 Nordeste 6 Sudeste 0 1017.7 1.2 74
2020-01-11 19:00:00 9.3 3 Sudeste 8 Sur 0 1017.5 1 67
2020-01-11 18:00:00 11.6 4 Sudoeste 12 Sudoeste 0 1017 0.4 58
2020-01-11 17:00:00 12.6 4 Sudoeste 13 Oeste 0 1016.5 -0.6 53
2020-01-11 16:00:00 12.8 6 Oeste 10 Oeste 0 1016.5 -1.6 53
2020-01-11 15:00:00 13.1 4 Sur 8 Sudoeste 0 1016.6 -2.3 56
2020-01-11 14:00:00 12 3 Sudoeste 5 Sudoeste 0 1017.1 -1.7 64
2020-01-11 13:00:00 10.6 3 Oeste 5 Sudoeste 0 1018.1 -0.3 70
2020-01-11 12:00:00 8.2 3 Sudoeste 12 Nordeste 0 1018.9 0.8 77
2020-01-11 11:00:00 5.9 11 Nordeste 14 Nordeste 0 1018.8 0.5 79
2020-01-11 10:00:00 4.1 11 Nordeste 18 Nordeste 0 1018.4 0.3 87
2020-01-11 09:00:00 3.4 9 Nordeste 14 Nordeste 0 1018.1 0.2 87
2020-01-11 08:00:00 3.9 10 Nordeste 16 Nordeste 0 1018.3 0.2 88
2020-01-11 07:00:00 3.6 6 Este 14 Este 0 1018.1 -0.2 87
2020-01-11 06:00:00 4.2 7 Nordeste 17 Nordeste 0 1017.9 -0.5 85
2020-01-11 05:00:00 4 3 Nordeste 17 Nordeste 0 1018.1 -0.3 85
2020-01-11 04:00:00 4.5 10 Nordeste 16 Este 0 1018.3 -0.7 84
2020-01-11 03:00:00 4.4 7 Nordeste 14 Nordeste 0 1018.4 -0.8 85
2020-01-11 02:00:00 4.7 9 Nordeste 16 Nordeste 0 1018.4 -0.7 83
2020-01-11 01:00:00 5.6 10 Este 17 Nordeste 0 1019 0.1 81
2020-01-11 00:00:00 5.9 10 Nordeste 18 Nordeste 0 1019.2 0.5 81
2020-01-10 23:00:00 6.2 5 Nordeste 17 Nordeste 0 1019.1 0.7 80
2020-01-10 22:00:00 6.6 6 Este 15 Nordeste 0 1018.9 0.8 80
2020-01-10 21:00:00 7 9 Nordeste 17 Este 0 1018.7 0.9 80
2020-01-10 20:00:00 8.5 9 Nordeste 15 Este 0 1018.4 0.9 74
2020-01-10 19:00:00 9.2 6 Nordeste 9 Nordeste 0 1018.1 0.4 73
2020-01-10 18:00:00 11.3 2 Nordeste 12 Norte 0 1017.8 -0.2 61
2020-01-10 17:00:00 12.2 5 Norte 15 Nordeste 0 1017.5 -1 59
2020-01-10 16:00:00 12.2 6 Norte 17 Norte 0 1017.7 -1.5 59
2020-01-10 15:00:00 12.4 13 Noroeste 21 Noroeste 0 1018 -2.1 61
2020-01-10 14:00:00 12.3 8 Norte 17 Noroeste 0 1018.5 -0.5 65
2020-01-10 13:00:00 10.9 3 Noroeste 5 Noroeste 0 1019.2 -0.3 77
2020-01-10 12:00:00 8.8 3 Oeste 8 Noroeste 0 1020.1 1.9 89
2020-01-10 11:00:00 5.9 3 Sudoeste 10 Este 0 1019 0.5 91
2020-01-10 10:00:00 5 7 Nordeste 10 Nordeste 0 1019.5 1.4 95
2020-01-10 09:00:00 5.3 7 Nordeste 14 Este 0 1018.2 0.9 94
2020-01-10 08:00:00 4.7 0 Calma 14 Este 0 1018.5 1.7 97
2020-01-10 07:00:00 4.5 4 Nordeste 14 Este 0 1018.1 1.3 95
2020-01-10 06:00:00 4.6 6 Nordeste 12 Nordeste 0 1017.3 0.7 95
2020-01-10 05:00:00 4.7 4 Este 9 Este 0 1016.8 0.3 94
2020-01-10 04:00:00 5.3 4 Este 13 Este 0 1016.8 0.1 94
2020-01-10 03:00:00 5.7 5 Nordeste 15 Nordeste 0 1016.6 -0.2 94
2020-01-10 02:00:00 6.2 7 Nordeste 11 Este 0 1016.5 0 93
2020-01-10 01:00:00 6.2 3 Noroeste 13 Este 0 1016.7 0.7 93
2020-01-10 00:00:00 7.3 5 Nordeste 15 Nordeste 0.4 1016.8 1.6 90
2020-01-09 23:00:00 7.3 7 Este 12 Este 0.2 1016.5 1.8 89
2020-01-09 22:00:00 8 6 Este 11 Este 0 1016 1.6 83
2020-01-09 21:00:00 8.3 5 Nordeste 10 Nordeste 0 1015.2 1.8 81
2020-01-09 20:00:00 9.2 0 Calma 15 Noroeste 0 1014.7 1.7 75
2020-01-09 19:00:00 10.1 12 Oeste 26 Sudoeste 0 1014.4 1.7 69
2020-01-09 18:00:00 11 9 Oeste 24 Oeste 0 1013.4 0.9 71
2020-01-09 17:00:00 11.5 12 Oeste 26 Sudoeste 0 1013 1.5 74
2020-01-09 16:00:00 11.6 12 Oeste 39 Noroeste 0 1012.7 1.5 70
2020-01-09 15:00:00 12.1 28 Oeste 45 Oeste 0 1012.5 1.6 77
2020-01-09 14:00:00 13 26 Sudoeste 46 Sudoeste 0 1011.5 0.6 92
2020-01-09 13:00:00 13.1 25 Sudoeste 48 Sudoeste 0.6 1011.2 0.1 97
2020-01-09 12:00:00 13.2 18 Sur 40 Sur 0 1010.9 0.1 95
2020-01-09 11:00:00 12.6 14 Sur 31 Sur 0.4 1010.9 -0.2 97
2020-01-09 10:00:00 12.2 7 Oeste 23 Sur 1 1011.1 -0.4 96
2020-01-09 09:00:00 12.3 7 Sur 27 Sudeste 0 1010.8 -0.7 96
2020-01-09 08:00:00 12.6 13 Sur 24 Sudeste 0 1011.1 -1 97
2020-01-09 07:00:00 12 11 Sur 19 Sur 0 1011.5 -1.2 98
2020-01-09 06:00:00 11.8 9 Sur 15 Sudeste 0 1011.5 -1.4 98
2020-01-09 05:00:00 11.1 4 Sudeste 10 Sudeste 0.6 1012.1 -1.1 98
2020-01-09 04:00:00 11.1 3 Sur 9 Sudeste 0.4 1012.7 -1 97
2020-01-09 03:00:00 10.9 3 Sudeste 11 Sudeste 0 1012.9 -1.3 97
2020-01-09 02:00:00 11 4 Sudeste 13 Sudeste 0 1013.2 -1.3 98
2020-01-09 01:00:00 10.7 4 Sudeste 11 Sudeste 0 1013.7 -0.8 97
2020-01-09 00:00:00 10.9 6 Sudeste 10 Sudeste 0 1014.2 -0.6 97
2020-01-08 23:00:00 10.8 3 Oeste 6 Nordeste 0 1014.5 -0.6 97
2020-01-08 22:00:00 10.7 4 Este 8 Sudeste 0 1014.5 -0.6 97
2020-01-08 21:00:00 11.2 3 Noroeste 10 Este 0.2 1014.8 0 97
2020-01-08 20:00:00 11.1 3 Sur 9 Sudeste 0.2 1015.1 0.3 97
2020-01-08 19:00:00 11.3 3 Sur 10 Sudeste 0.2 1015.1 0.3 96
2020-01-08 18:00:00 11.2 5 Sur 9 Sudeste 0 1014.8 -0.2 95
2020-01-08 17:00:00 11.5 3 Oeste 8 Este 0 1014.8 -0.7 94
2020-01-08 16:00:00 11.9 3 Oeste 4 Sudoeste 0.2 1014.8 -1.5 92
2020-01-08 15:00:00 12.3 2 Sur 10 Sur 0 1015 -2 88
2020-01-08 14:00:00 12.3 3 Sur 5 Sudoeste 0 1015.5 -1.7 80
2020-01-08 13:00:00 11.5 2 Sudeste 8 Oeste 0 1016.3 -0.5 88
2020-01-08 12:00:00 10.5 4 Sudoeste 6 Sudoeste 0 1017 0.5 86
2020-01-08 11:00:00 9.4 0 Calma 4 Oeste 0 1017.2 0.7 87
2020-01-08 10:00:00 8.9 2 Sur 4 Sudoeste 0 1016.8 0.3 88
2020-01-08 09:00:00 9.1 0 Calma 6 Nordeste 0 1016.5 -0.3 88
2020-01-08 08:00:00 8.5 0 Calma 3 Sudeste 0 1016.5 -0.4 87
2020-01-08 07:00:00 8.1 0 Calma 4 Este 0 1016.5 -0.6 88
2020-01-08 06:00:00 8.1 0 Calma 4 Nordeste 0 1016.8 -0.7 89
2020-01-08 05:00:00 8.2 0 Calma 4 Sudeste 0 1016.9 -0.9 89
2020-01-08 04:00:00 8.2 4 Nordeste 12 Este 0 1017.1 -0.8 88
2020-01-08 03:00:00 7.8 0 Calma 9 Este 0 1017.5 -0.6 90
2020-01-08 02:00:00 8.1 3 Sudeste 13 Este 0 1017.8 -0.7 89
2020-01-08 01:00:00 8 6 Este 13 Este 0 1017.9 -0.5 90
2020-01-08 00:00:00 8.1 3 Norte 8 Nordeste 0 1018.1 -0.3 90
2020-01-07 23:00:00 8.3 7 Este 13 Nordeste 0 1018.5 0.4 90
2020-01-07 22:00:00 8.6 3 Este 10 Nordeste 0 1018.4 0.3 90
2020-01-07 21:00:00 8.1 5 Nordeste 12 Este 0 1018.4 0.7 90
2020-01-07 20:00:00 8.6 5 Este 6 Este 0 1018.1 0.5 90
2020-01-07 19:00:00 9.2 3 Sudeste 6 Sur 0 1018.1 0.5 86
2020-01-07 18:00:00 11 4 Sur 8 Sur 0 1017.7 0 78
2020-01-07 17:00:00 12 5 Sudoeste 11 Oeste 0 1017.6 -0.9 77
2020-01-07 16:00:00 12.4 4 Sur 12 Oeste 0 1017.6 -1.6 74
2020-01-07 15:00:00 12.6 4 Sudoeste 11 Sudoeste 0 1017.7 -2 70
2020-01-07 14:00:00 11.5 5 Sudoeste 8 Sudoeste 0 1018.5 -0.8 72
2020-01-07 13:00:00 9.2 3 Oeste 4 Oeste 0 1019.2 0.6 80
2020-01-07 12:00:00 7.5 3 Sur 10 Este 0 1019.7 1.5 81
2020-01-07 11:00:00 5.5 7 Nordeste 17 Nordeste 0 1019.3 1.2 88
2020-01-07 10:00:00 2.9 2 Este 18 Nordeste 0 1018.6 0.6 92
2020-01-07 09:00:00 3 10 Nordeste 19 Nordeste 0 1018.2 0.2 92
2020-01-07 08:00:00 3.4 12 Nordeste 17 Nordeste 0 1018.1 0 92
2020-01-07 07:00:00 3.4 6 Este 12 Este 0 1018 -0.2 92
2020-01-07 06:00:00 3.8 9 Nordeste 20 Nordeste 0 1018 0 91
2020-01-07 05:00:00 3.8 5 Nordeste 13 Nordeste 0 1018.1 0.4 91
2020-01-07 04:00:00 3.9 6 Este 16 Este 0 1018.2 0.3 91
2020-01-07 03:00:00 4.4 11 Nordeste 17 Nordeste 0 1018 0.4 90
2020-01-07 02:00:00 4.9 4 Este 14 Nordeste 0 1017.7 0.1 89
2020-01-07 01:00:00 5.2 8 Este 15 Nordeste 0 1017.9 0.4 89
2020-01-07 00:00:00 5.9 9 Nordeste 13 Nordeste 0 1017.6 -0.1 86
2020-01-06 23:00:00 6.5 6 Este 9 Este 0 1017.6 0.1 86
2020-01-06 22:00:00 7.5 2 Sur 12 Este 0 1017.5 0.4 82
2020-01-06 21:00:00 8.8 5 Este 7 Este 0 1017.7 0.9 78
2020-01-06 20:00:00 9.6 0 Calma 7 Sudeste 0 1017.5 1.3 78
2020-01-06 19:00:00 10 0 Calma 5 Sudoeste 0 1017.1 1.6 78
2020-01-06 18:00:00 10.6 3 Sudeste 5 Sudoeste 0 1016.8 1.6 81
2020-01-06 17:00:00 11.1 3 Sur 6 Sur 0 1016.2 0.4 75
2020-01-06 16:00:00 11.2 3 Sur 9 Sur 0 1015.5 -1.3 74
2020-01-06 15:00:00 10.3 3 Sudoeste 8 Oeste 0 1015.2 -1.9 79
2020-01-06 14:00:00 9.3 5 Sudoeste 9 Este 0 1015.8 -0.9 79
2020-01-06 13:00:00 7.4 4 Nordeste 11 Nordeste 0 1016.8 0.5 88
2020-01-06 12:00:00 5.7 6 Nordeste 14 Nordeste 0 1017.1 1.8 88
2020-01-06 11:00:00 4.4 2 Sur 18 Nordeste 0 1016.7 1.4 89
2020-01-06 10:00:00 3.3 11 Nordeste 17 Nordeste 0 1016.3 1.3 92